Time;durP1;ratioP1;P1;durP2;ratioP2;P2;SDS_P1;SDS_P2;PMS_P1;PMS_P2;Temp;Humidity;BMP_temperature;BMP_pressure;BME280_temperature;BME280_humidity;BME280_pressure;Samples;Min_cycle;Max_cycle;Signal;HPM_P1;HPM_P2
2021/06/19 00:01:06;;;;;;;2.72;1.50;;;;;;;21.09;79.28;100991.42;1674868;83;21038;-43
2021/06/19 00:03:32;;;;;;;3.27;1.20;;;;;;;21.06;79.78;100987.62;1674878;83;21022;-48
2021/06/19 00:05:59;;;;;;;2.55;1.42;;;;;;;21.03;80.05;100986.56;1679027;83;20969;-43
2021/06/19 00:08:25;;;;;;;1.72;1.30;;;;;;;20.96;80.51;100985.43;1674891;83;21022;-43
2021/06/19 00:10:52;;;;;;;2.10;1.30;;;;;;;20.91;81.11;100979.08;1673911;83;21869;-41
2021/06/19 00:13:19;;;;;;;2.22;1.50;;;;;;;20.87;81.68;100983.61;1677740;83;20971;-43
2021/06/19 00:15:45;;;;;;;2.75;1.40;;;;;;;20.84;82.81;100982.52;1680454;83;20908;-41
2021/06/19 00:18:12;;;;;;;2.35;1.42;;;;;;;20.81;83.30;100979.59;1678541;83;21846;-41
2021/06/19 00:20:39;;;;;;;1.52;1.10;;;;;;;20.79;83.72;100982.97;1676222;83;21057;-43
2021/06/19 00:23:05;;;;;;;2.90;1.27;;;;;;;20.73;83.75;100978.11;1681224;83;21357;-42
2021/06/19 00:25:32;;;;;;;2.65;1.70;;;;;;;20.67;83.88;100979.55;1633217;84;20987;-44
2021/06/19 00:27:59;;;;;;;3.00;1.35;;;;;;;20.64;84.29;100981.70;1634406;85;21844;-45
2021/06/19 00:30:25;;;;;;;2.33;1.35;;;;;;;20.60;84.55;100981.62;1635329;85;20971;-44
2021/06/19 00:32:52;;;;;;;2.55;1.30;;;;;;;20.59;84.81;100978.53;1631372;85;20987;-45
2021/06/19 00:35:20;;;;;;;5.95;1.60;;;;;;;20.59;85.02;100983.48;1676218;83;21653;-46
2021/06/19 00:37:49;;;;;;;4.03;1.15;;;;;;;20.57;85.16;100980.05;1675098;83;20954;-40
2021/06/19 00:40:18;;;;;;;2.15;1.70;;;;;;;20.56;85.49;100970.19;1674562;83;20982;-43
2021/06/19 00:42:58;;;;;;;2.08;1.25;;;;;;;20.56;85.85;100978.32;1659384;84;21029;-43
2021/06/19 00:45:26;;;;;;;3.15;1.30;;;;;;;20.54;85.58;100966.77;1675629;83;20951;-43
2021/06/19 00:47:52;;;;;;;3.75;1.40;;;;;;;20.49;85.84;100968.55;1670875;83;21757;-46
2021/06/19 00:50:19;;;;;;;4.83;2.20;;;;;;;20.46;86.05;100964.77;1676643;83;20914;-42
2021/06/19 00:52:46;;;;;;;2.08;1.37;;;;;;;20.40;86.42;100969.89;1682460;83;20961;-42
2021/06/19 00:55:13;;;;;;;2.70;1.52;;;;;;;20.38;86.70;100964.60;1676706;83;21033;-42
2021/06/19 00:57:40;;;;;;;4.08;1.20;;;;;;;20.34;86.75;100959.13;1680234;83;21003;-41
2021/06/19 01:00:08;;;;;;;3.33;1.00;;;;;;;20.32;86.91;100963.33;1677792;83;21454;-43
2021/06/19 01:02:36;;;;;;;5.40;1.42;;;;;;;20.31;86.90;100969.75;1674828;83;21019;-42
2021/06/19 01:05:05;;;;;;;3.08;1.67;;;;;;;20.30;86.87;100972.58;1676928;83;21005;-42
2021/06/19 01:07:31;;;;;;;2.45;1.10;;;;;;;20.23;86.83;100966.02;1677636;83;21000;-44
2021/06/19 01:09:58;;;;;;;2.62;1.25;;;;;;;20.19;87.26;100965.45;1684520;82;20972;-43
2021/06/19 01:12:25;;;;;;;2.05;1.37;;;;;;;20.16;87.41;100964.39;1680640;83;21037;-43
2021/06/19 01:14:54;;;;;;;2.27;1.22;;;;;;;20.16;87.37;100969.80;1681127;83;20944;-43
2021/06/19 01:17:21;;;;;;;1.07;0.98;;;;;;;20.16;87.67;100968.92;1679335;83;21346;-44
2021/06/19 01:20:04;;;;;;;2.45;1.05;;;;;;;20.13;87.47;100967.35;1678614;83;21009;-52
2021/06/19 01:22:31;;;;;;;2.72;1.12;;;;;;;20.11;87.62;100974.78;1684061;83;20961;-42
2021/06/19 01:25:07;;;;;;;3.83;1.47;;;;;;;20.10;87.69;100975.25;1679198;83;20974;-42
2021/06/19 01:27:35;;;;;;;6.12;1.60;;;;;;;20.14;88.07;100968.23;1675279;83;21053;-44
2021/06/19 01:30:05;;;;;;;2.40;1.72;;;;;;;20.15;88.20;100976.70;1678356;83;20988;-41
2021/06/19 01:32:34;;;;;;;4.03;1.53;;;;;;;20.14;88.14;100975.00;1680860;83;20962;-43
2021/06/19 01:35:01;;;;;;;2.95;1.25;;;;;;;20.13;88.34;100975.47;1690252;83;20956;-39
2021/06/19 01:37:27;;;;;;;3.12;1.75;;;;;;;20.11;88.61;100974.78;1684082;82;20974;-41
2021/06/19 01:40:08;;;;;;;2.83;1.07;;;;;;;20.10;88.70;100974.41;1677048;83;21320;-40
2021/06/19 01:42:42;;;;;;;2.40;1.22;;;;;;;20.06;88.61;100973.84;1675141;83;21472;-41
2021/06/19 01:45:15;;;;;;;2.22;1.15;;;;;;;20.04;89.26;100978.53;1663668;84;21312;-43
2021/06/19 01:47:42;;;;;;;2.02;1.45;;;;;;;20.05;89.75;100980.23;1673761;83;21011;-40
2021/06/19 01:50:12;;;;;;;4.60;1.10;;;;;;;20.09;90.15;100980.83;1672608;83;20956;-42
2021/06/19 01:52:39;;;;;;;2.27;1.52;;;;;;;20.12;90.60;100981.89;1663948;83;20987;-44
2021/06/19 01:55:07;;;;;;;2.37;1.67;;;;;;;20.14;90.81;100979.91;1659175;83;20922;-43
2021/06/19 01:57:36;;;;;;;4.75;1.30;;;;;;;20.14;91.20;100973.64;1673919;84;20984;-46
2021/06/19 02:00:17;;;;;;;2.75;1.20;;;;;;;20.12;91.05;100966.16;1668596;84;20976;-44
2021/06/19 02:02:44;;;;;;;5.53;1.72;;;;;;;20.06;90.91;100967.08;1682467;83;21571;-45
2021/06/19 02:05:12;;;;;;;2.60;1.22;;;;;;;20.01;90.74;100963.94;1643837;85;20975;-45
2021/06/19 02:07:52;;;;;;;1.50;1.12;;;;;;;19.96;90.54;100966.20;1636608;85;21003;-45
2021/06/19 02:10:21;;;;;;;2.22;1.10;;;;;;;19.97;90.78;100962.98;1604244;87;21013;-40
2021/06/19 02:12:48;;;;;;;2.85;1.32;;;;;;;20.00;91.52;100963.55;1626768;86;21651;-39
2021/06/19 02:15:16;;;;;;;3.17;0.90;;;;;;;20.03;91.77;100970.06;1619270;86;21000;-39
2021/06/19 02:17:43;;;;;;;3.10;1.17;;;;;;;20.06;91.45;100972.48;1621598;86;20992;-39
2021/06/19 02:20:12;;;;;;;1.92;1.30;;;;;;;20.09;91.54;100970.00;1635317;85;20988;-39
2021/06/19 02:22:38;;;;;;;2.83;1.25;;;;;;;20.10;91.13;100968.48;1642569;86;20993;-43
2021/06/19 02:25:08;;;;;;;4.08;1.25;;;;;;;20.10;90.82;100968.48;1646709;86;21019;-40
2021/06/19 02:27:34;;;;;;;3.02;1.77;;;;;;;20.11;90.69;100965.30;1637421;86;21004;-41
2021/06/19 02:30:01;;;;;;;2.10;1.20;;;;;;;20.13;90.14;100972.77;1642172;86;21365;-41
2021/06/19 02:32:27;;;;;;;2.17;1.22;;;;;;;20.16;90.27;100967.56;1654385;86;21055;-42
2021/06/19 02:34:53;;;;;;;9.33;2.58;;;;;;;20.20;90.53;100966.30;1626056;86;20984;-39
2021/06/19 02:37:20;;;;;;;4.62;1.30;;;;;;;20.23;90.22;100970.08;1633345;86;21007;-41
2021/06/19 02:39:46;;;;;;;7.50;1.50;;;;;;;20.22;90.37;100973.29;1631088;85;21526;-41
2021/06/19 02:42:14;;;;;;;2.02;1.30;;;;;;;20.21;89.96;100974.77;1633177;85;21030;-37
2021/06/19 02:44:41;;;;;;;4.75;1.47;;;;;;;20.20;90.05;100979.84;1634014;86;21606;-41
2021/06/19 02:47:08;;;;;;;1.47;1.27;;;;;;;20.21;90.26;100978.83;1632072;85;21020;-41
2021/06/19 02:49:35;;;;;;;3.62;1.82;;;;;;;20.23;90.10;100985.81;1638246;86;21032;-41
2021/06/19 02:52:02;;;;;;;6.15;1.57;;;;;;;20.28;89.80;100987.60;1634316;86;21504;-45
2021/06/19 02:54:29;;;;;;;4.20;1.47;;;;;;;20.32;89.90;100985.48;1645756;85;21454;-41
2021/06/19 02:56:56;;;;;;;1.90;1.40;;;;;;;20.37;90.09;100987.78;1639769;86;20993;-42
2021/06/19 02:59:23;;;;;;;1.42;1.10;;;;;;;20.42;89.90;100993.13;1639550;86;21395;-41
2021/06/19 03:01:49;;;;;;;5.17;1.25;;;;;;;20.49;89.71;100995.63;1642195;86;21053;-43
2021/06/19 03:04:17;;;;;;;3.90;1.25;;;;;;;20.53;89.35;100986.70;1646916;85;20965;-43
2021/06/19 03:06:44;;;;;;;3.75;1.40;;;;;;;20.55;89.53;100996.09;1644956;85;20972;-39
2021/06/19 03:09:11;;;;;;;3.25;1.60;;;;;;;20.59;90.20;100998.84;1632510;85;20975;-42
2021/06/19 03:11:37;;;;;;;2.75;1.40;;;;;;;20.60;89.66;101000.58;1633234;86;20991;-43
2021/06/19 03:14:05;;;;;;;4.45;1.77;;;;;;;20.63;90.19;101005.20;1608070;86;20983;-54
2021/06/19 03:16:33;;;;;;;4.47;1.12;;;;;;;20.64;89.93;101005.58;1635362;85;20993;-42
2021/06/19 03:18:59;;;;;;;1.75;1.15;;;;;;;20.66;89.86;101003.59;1636741;85;20969;-42
2021/06/19 03:21:26;;;;;;;1.85;1.42;;;;;;;20.67;89.82;101003.93;1639641;84;20988;-43
2021/06/19 03:23:53;;;;;;;2.90;1.32;;;;;;;20.69;89.81;101003.80;1638181;85;20994;-43
2021/06/19 03:26:19;;;;;;;1.67;1.40;;;;;;;20.72;89.98;101007.58;1640830;85;21010;-44
2021/06/19 03:28:46;;;;;;;2.42;1.27;;;;;;;20.74;90.00;101011.00;1637471;85;21910;-43
2021/06/19 03:31:13;;;;;;;2.77;1.42;;;;;;;20.76;89.72;101013.04;1640060;85;21034;-43
2021/06/19 03:33:40;;;;;;;1.10;1.00;;;;;;;20.77;89.55;101008.00;1636036;85;20996;-42
2021/06/19 03:36:06;;;;;;;1.98;1.42;;;;;;;20.77;89.55;101005.80;1639619;85;20978;-42
2021/06/19 03:38:33;;;;;;;2.20;1.22;;;;;;;20.78;88.94;100996.66;1638063;85;20971;-44
2021/06/19 03:41:00;;;;;;;3.05;1.35;;;;;;;20.77;89.16;101003.94;1636963;85;21024;-43
2021/06/19 03:43:27;;;;;;;2.17;1.05;;;;;;;20.80;89.21;101007.70;1644346;85;20999;-41
2021/06/19 03:45:53;;;;;;;1.80;1.07;;;;;;;20.83;89.18;101006.56;1636900;85;21513;-44
2021/06/19 03:48:20;;;;;;;1.30;1.10;;;;;;;20.86;88.91;100998.98;1639455;85;20968;-43
2021/06/19 03:50:47;;;;;;;1.45;1.20;;;;;;;20.88;88.79;101003.77;1624788;86;21032;-47
2021/06/19 03:53:13;;;;;;;8.13;1.12;;;;;;;20.94;89.01;100996.91;1638869;86;20972;-44
2021/06/19 03:55:40;;;;;;;3.20;1.17;;;;;;;21.00;88.85;100998.20;1642326;86;20953;-49
2021/06/19 03:58:07;;;;;;;1.65;1.30;;;;;;;21.01;88.24;100995.33;1647710;84;21046;-41
2021/06/19 04:00:33;;;;;;;3.85;1.40;;;;;;;21.04;87.43;100992.83;1641248;85;21483;-39
2021/06/19 04:03:01;;;;;;;2.55;1.15;;;;;;;21.07;86.92;100993.41;1636988;85;21013;-41
2021/06/19 04:05:28;;;;;;;3.17;1.52;;;;;;;21.09;86.34;100995.96;1641611;85;20984;-40
2021/06/19 04:07:54;;;;;;;1.85;1.32;;;;;;;21.10;85.79;100996.33;1633547;85;21020;-40
2021/06/19 04:10:21;;;;;;;5.90;1.22;;;;;;;21.11;86.05;100997.52;1639057;85;20971;-39
2021/06/19 04:12:48;;;;;;;1.30;1.17;;;;;;;21.12;85.77;100997.90;1641542;85;21013;-43
2021/06/19 04:15:15;;;;;;;1.15;0.93;;;;;;;21.12;85.36;100998.41;1643025;85;21041;-41
2021/06/19 04:17:42;;;;;;;2.60;1.17;;;;;;;21.15;85.73;101000.81;1647362;86;21044;-39
2021/06/19 04:20:10;;;;;;;3.65;1.40;;;;;;;21.15;85.73;100997.59;1644305;85;21002;-39
2021/06/19 04:22:37;;;;;;;1.70;1.20;;;;;;;21.20;86.04;101007.16;1645318;85;21049;-41
2021/06/19 04:25:05;;;;;;;2.10;1.00;;;;;;;21.23;85.89;101005.51;1646718;85;21316;-39
2021/06/19 04:27:42;;;;;;;3.87;1.12;;;;;;;21.25;86.27;101012.50;1646325;85;21113;-39
2021/06/19 04:30:11;;;;;;;2.37;1.15;;;;;;;21.28;86.45;101012.20;1643862;85;20991;-38
2021/06/19 04:32:38;;;;;;;1.98;1.00;;;;;;;21.33;85.64;101013.12;1650205;85;21042;-37
2021/06/19 04:35:06;;;;;;;4.50;1.45;;;;;;;21.36;86.05;101012.81;1638024;86;20944;-37
2021/06/19 04:37:32;;;;;;;5.50;2.12;;;;;;;21.37;85.82;101016.75;1640785;85;21031;-38
2021/06/19 04:42:54;;;;;;;3.47;2.25;;;;;;;21.41;85.88;101014.62;1640347;85;21044;-37
2021/06/19 04:45:13;;;;;;;4.53;1.85;;;;;;;21.44;85.87;101008.05;1670004;84;20970;-37
2021/06/19 04:47:41;;;;;;;2.60;1.60;;;;;;;21.45;85.47;101011.13;1672787;84;22055;-38
2021/06/19 04:50:09;;;;;;;2.75;1.52;;;;;;;21.46;85.49;101002.83;1675699;84;21521;-38
2021/06/19 04:52:40;;;;;;;2.80;1.17;;;;;;;21.45;84.97;101007.91;1667395;84;21001;-39
2021/06/19 04:55:05;;;;;;;2.50;1.15;;;;;;;21.47;85.92;101008.62;1658414;84;20999;-40
2021/06/19 04:57:32;;;;;;;4.67;1.40;;;;;;;21.51;86.08;101007.30;1667893;84;20991;-39
2021/06/19 04:59:59;;;;;;;2.62;1.05;;;;;;;21.57;86.22;101008.09;1668120;84;20955;-38
2021/06/19 05:02:25;;;;;;;8.55;1.72;;;;;;;21.62;86.03;101003.58;1660872;84;21036;-39
2021/06/19 05:04:52;;;;;;;1.40;1.10;;;;;;;21.66;85.97;101009.55;1674385;84;20953;-41
2021/06/19 05:07:18;;;;;;;3.30;0.98;;;;;;;21.71;86.19;101007.23;1672806;84;20963;-38
2021/06/19 05:09:45;;;;;;;3.12;1.98;;;;;;;21.78;85.95;101010.56;1680060;84;20959;-38
2021/06/19 05:12:12;;;;;;;4.83;1.10;;;;;;;21.82;85.08;101007.03;1670988;84;21011;-38
2021/06/19 05:14:39;;;;;;;1.47;1.05;;;;;;;21.86;84.39;101000.31;1674251;84;21049;-39
2021/06/19 05:17:06;;;;;;;2.27;1.20;;;;;;;21.91;83.38;101012.08;1680201;84;20986;-38
2021/06/19 05:19:32;;;;;;;3.67;1.30;;;;;;;21.92;83.86;101007.83;1670288;84;21510;-38
2021/06/19 05:21:59;;;;;;;2.00;1.02;;;;;;;21.94;83.42;101009.90;1654263;84;20971;-39
2021/06/19 05:24:26;;;;;;;2.80;1.22;;;;;;;21.97;83.35;101012.81;1670375;84;21449;-41
2021/06/19 05:26:53;;;;;;;5.03;1.05;;;;;;;21.98;83.31;101009.97;1682074;84;20926;-39
2021/06/19 05:29:20;;;;;;;2.08;1.02;;;;;;;22.02;83.75;101013.22;1677850;84;21027;-38
2021/06/19 05:31:48;;;;;;;1.65;1.10;;;;;;;22.05;83.13;100999.36;1671020;84;21067;-39
2021/06/19 05:34:15;;;;;;;2.58;1.40;;;;;;;22.11;83.59;101001.97;1676875;84;21006;-39
2021/06/19 05:36:42;;;;;;;2.55;1.25;;;;;;;22.17;84.35;100998.11;1678051;84;21470;-39
2021/06/19 05:39:08;;;;;;;2.22;1.50;;;;;;;22.23;82.95;101002.98;1672781;84;21069;-42
2021/06/19 05:41:36;;;;;;;2.33;1.17;;;;;;;22.30;83.71;101003.23;1675501;84;20975;-39
2021/06/19 05:44:08;;;;;;;7.40;1.82;;;;;;;22.37;84.01;101014.33;1680566;83;20969;-47
2021/06/19 05:46:33;;;;;;;3.25;1.30;;;;;;;22.43;82.92;101017.80;1687689;83;21069;-44
2021/06/19 05:49:00;;;;;;;2.60;1.52;;;;;;;22.48;83.04;101016.84;1683546;83;21432;-44
2021/06/19 05:51:26;;;;;;;4.55;1.40;;;;;;;22.52;83.69;101019.58;1684672;83;21001;-46
2021/06/19 05:53:53;;;;;;;4.80;2.08;;;;;;;22.57;83.13;101019.96;1690445;83;21011;-43
2021/06/19 05:56:19;;;;;;;1.45;1.20;;;;;;;22.61;83.42;101024.09;1696206;83;21022;-41
2021/06/19 05:58:46;;;;;;;5.28;1.57;;;;;;;22.66;83.62;101027.70;1694735;83;21016;-44
2021/06/19 06:01:13;;;;;;;2.60;1.47;;;;;;;22.69;83.67;101018.72;1678689;83;20994;-44
2021/06/19 06:03:44;;;;;;;3.87;0.88;;;;;;;22.75;83.81;101025.91;1679263;83;20982;-42
2021/06/19 06:06:12;;;;;;;3.83;1.45;;;;;;;22.78;83.56;101022.87;1675308;83;20959;-41
2021/06/19 06:08:38;;;;;;;2.37;1.32;;;;;;;22.82;83.14;101025.63;1682275;83;21548;-40
2021/06/19 06:11:06;;;;;;;3.87;1.80;;;;;;;22.86;82.54;101019.73;1684356;83;20965;-42
2021/06/19 06:13:32;;;;;;;4.60;1.35;;;;;;;22.92;82.74;101020.11;1697529;83;20976;-41
2021/06/19 06:15:59;;;;;;;7.60;1.42;;;;;;;22.97;82.89;101018.66;1690403;83;20972;-44
2021/06/19 06:18:25;;;;;;;3.50;1.60;;;;;;;23.02;82.79;101014.11;1685725;83;20997;-44
2021/06/19 06:20:52;;;;;;;3.42;1.30;;;;;;;23.07;82.90;101009.90;1674929;83;20972;-43
2021/06/19 06:23:18;;;;;;;2.08;1.37;;;;;;;23.14;81.22;101014.20;1681133;83;21043;-41
2021/06/19 06:25:45;;;;;;;1.85;1.20;;;;;;;23.18;80.86;101009.30;1691142;83;20948;-42
2021/06/19 06:28:12;;;;;;;4.78;1.50;;;;;;;23.24;80.17;101017.68;1693575;83;21055;-44
2021/06/19 06:30:38;;;;;;;3.70;1.52;;;;;;;23.28;80.37;101020.44;1688892;83;21519;-42
2021/06/19 06:33:05;;;;;;;2.92;1.57;;;;;;;23.33;80.40;101019.45;1687542;83;21039;-44
2021/06/19 06:35:31;;;;;;;3.65;1.40;;;;;;;23.38;79.74;101024.91;1687134;83;21445;-43
2021/06/19 06:37:58;;;;;;;3.12;1.20;;;;;;;23.42;81.46;101029.87;1684543;83;20989;-43
2021/06/19 06:40:25;;;;;;;3.27;1.30;;;;;;;23.46;80.57;101024.47;1692987;83;20960;-43
2021/06/19 06:42:51;;;;;;;2.58;1.50;;;;;;;23.50;80.99;101013.58;1682875;83;21005;-43
2021/06/19 06:45:19;;;;;;;3.17;1.75;;;;;;;23.55;80.00;101015.31;1690598;83;20972;-41
2021/06/19 06:47:45;;;;;;;2.58;1.37;;;;;;;23.63;80.52;101019.09;1682924;83;20982;-44
2021/06/19 06:50:12;;;;;;;3.98;1.77;;;;;;;23.66;79.32;101020.13;1691906;83;20987;-43
2021/06/19 06:52:39;;;;;;;5.95;1.60;;;;;;;23.69;77.10;101017.11;1687452;83;21011;-43
2021/06/19 06:55:07;;;;;;;2.47;1.50;;;;;;;23.73;77.18;101017.14;1681228;83;20953;-48
2021/06/19 06:57:34;;;;;;;3.20;1.72;;;;;;;23.76;77.01;101018.17;1693043;83;21031;-47
2021/06/19 07:00:00;;;;;;;2.47;1.37;;;;;;;23.80;75.66;101014.13;1689437;83;20992;-44
2021/06/19 07:02:31;;;;;;;5.47;1.65;;;;;;;23.82;75.77;101008.01;1679758;83;20993;-50
2021/06/19 07:05:00;;;;;;;4.05;1.90;;;;;;;23.87;76.12;101008.38;1678296;83;21038;-45
2021/06/19 07:07:27;;;;;;;3.47;1.37;;;;;;;23.91;77.23;101011.61;1686895;83;20981;-41
2021/06/19 07:09:56;;;;;;;4.33;1.70;;;;;;;23.94;76.15;101006.70;1682344;83;21322;-42
2021/06/19 07:12:24;;;;;;;2.08;1.15;;;;;;;24.00;76.99;101007.91;1685249;83;20985;-43
2021/06/19 07:14:51;;;;;;;3.98;1.90;;;;;;;24.06;77.56;101007.75;1693120;83;21378;-45
2021/06/19 07:17:17;;;;;;;1.98;1.62;;;;;;;24.11;76.01;101004.02;1689540;83;20966;-40
2021/06/19 07:19:44;;;;;;;2.95;1.40;;;;;;;24.15;76.11;101004.89;1687833;83;20979;-43
2021/06/19 07:22:10;;;;;;;3.52;1.72;;;;;;;24.20;76.51;101005.77;1686260;83;20942;-44
2021/06/19 07:24:37;;;;;;;5.55;2.33;;;;;;;24.23;75.36;101004.06;1695003;83;20995;-45
2021/06/19 07:27:05;;;;;;;3.30;1.60;;;;;;;24.26;75.48;101002.36;1687702;83;20985;-46
2021/06/19 07:29:32;;;;;;;3.10;1.30;;;;;;;24.31;75.35;101000.50;1692996;83;21001;-44
2021/06/19 07:31:59;;;;;;;4.50;1.70;;;;;;;24.34;76.06;100999.67;1689658;83;21005;-46
2021/06/19 07:34:27;;;;;;;2.30;1.40;;;;;;;24.38;77.31;101006.48;1690916;83;21025;-44
2021/06/19 07:36:55;;;;;;;2.72;1.50;;;;;;;24.43;74.77;101001.89;1693310;83;20964;-40
2021/06/19 07:39:22;;;;;;;2.85;1.75;;;;;;;24.47;74.43;101007.39;1703270;83;20979;-46
2021/06/19 07:41:49;;;;;;;4.47;1.95;;;;;;;24.52;75.74;101010.47;1691738;83;20981;-45
2021/06/19 07:44:16;;;;;;;2.33;1.40;;;;;;;24.56;75.02;101002.80;1696385;83;20987;-46
2021/06/19 07:46:46;;;;;;;3.95;1.90;;;;;;;24.60;74.47;101011.84;1685984;83;20982;-45
2021/06/19 07:49:13;;;;;;;3.95;2.40;;;;;;;24.63;74.57;101010.64;1653400;84;21507;-46
2021/06/19 07:51:40;;;;;;;4.30;2.27;;;;;;;24.67;73.85;101007.94;1691080;83;20964;-45
2021/06/19 07:54:06;;;;;;;5.08;1.90;;;;;;;24.70;73.83;101008.95;1638718;86;21533;-43
2021/06/19 07:56:33;;;;;;;3.45;2.33;;;;;;;24.75;72.93;101003.84;1656450;85;21467;-44
2021/06/19 07:58:59;;;;;;;2.95;1.80;;;;;;;24.79;74.59;100996.16;1660735;85;20958;-44
2021/06/19 08:01:26;;;;;;;3.50;2.20;;;;;;;24.83;76.32;100997.02;1660943;84;21513;-43
2021/06/19 08:03:53;;;;;;;4.85;1.90;;;;;;;24.88;75.26;100999.77;1688281;83;20948;-44
2021/06/19 08:06:19;;;;;;;3.95;1.98;;;;;;;24.94;75.67;100995.81;1689825;83;20972;-48
2021/06/19 08:08:46;;;;;;;3.22;2.30;;;;;;;25.00;75.43;100996.52;1687865;83;20977;-45
2021/06/19 08:11:14;;;;;;;4.80;1.80;;;;;;;25.04;74.18;100997.85;1684713;83;21022;-43
2021/06/19 08:13:41;;;;;;;3.42;2.08;;;;;;;25.09;74.39;100993.77;1684584;83;20950;-42
2021/06/19 08:16:10;;;;;;;6.95;1.90;;;;;;;25.14;74.07;100998.20;1685069;83;20950;-46
2021/06/19 08:18:36;;;;;;;7.95;2.92;;;;;;;25.18;73.03;100981.86;1684220;83;21022;-41
2021/06/19 08:21:03;;;;;;;3.87;2.40;;;;;;;25.23;72.73;100987.66;1690499;83;21397;-49
2021/06/19 08:23:30;;;;;;;3.05;2.27;;;;;;;25.28;72.88;100990.72;1691136;83;20968;-43
2021/06/19 08:25:57;;;;;;;5.87;2.80;;;;;;;25.33;73.61;100995.14;1640690;83;20958;-42
2021/06/19 08:28:23;;;;;;;3.20;1.87;;;;;;;25.36;72.24;100980.30;1685177;83;21072;-44
2021/06/19 08:30:50;;;;;;;2.65;2.10;;;;;;;25.41;71.94;100981.46;1684195;83;21372;-45
2021/06/19 08:33:17;;;;;;;5.72;2.35;;;;;;;25.45;72.03;100973.28;1690102;83;22742;-42
2021/06/19 08:35:43;;;;;;;3.98;2.22;;;;;;;25.50;73.67;100979.55;1685033;83;20978;-43
2021/06/19 08:38:10;;;;;;;6.62;2.65;;;;;;;25.54;71.79;100982.27;1677563;82;21000;-42
2021/06/19 08:40:38;;;;;;;5.40;2.27;;;;;;;25.58;70.71;100966.41;1639412;85;21339;-44
2021/06/19 08:43:05;;;;;;;3.08;1.90;;;;;;;25.63;71.89;100968.10;1687657;83;21001;-43
2021/06/19 08:45:33;;;;;;;2.55;1.85;;;;;;;25.67;71.98;100964.81;1682802;83;20948;-42
2021/06/19 08:48:00;;;;;;;3.20;2.27;;;;;;;25.71;70.93;100961.75;1686564;83;20991;-43
2021/06/19 08:50:27;;;;;;;5.87;2.80;;;;;;;25.74;71.19;100963.61;1690974;83;21010;-44
2021/06/19 08:52:54;;;;;;;2.60;2.27;;;;;;;25.77;69.95;100967.34;1688687;83;21011;-43
2021/06/19 08:55:20;;;;;;;5.35;2.85;;;;;;;25.78;69.92;100961.36;1691528;83;20966;-42
2021/06/19 08:57:47;;;;;;;2.92;2.45;;;;;;;25.82;69.47;100963.56;1684381;83;21518;-44
2021/06/19 09:00:15;;;;;;;5.35;2.37;;;;;;;25.86;70.58;100958.64;1689356;82;21561;-45
2021/06/19 09:02:43;;;;;;;3.00;2.20;;;;;;;25.90;70.44;100959.48;1686930;83;20993;-43
2021/06/19 09:05:12;;;;;;;5.00;3.00;;;;;;;25.94;69.58;100959.12;1688971;83;21529;-44
2021/06/19 09:07:52;;;;;;;5.92;2.75;;;;;;;25.97;68.51;100957.38;1690683;83;21013;-46
2021/06/19 09:10:29;;;;;;;6.62;2.67;;;;;;;26.00;68.49;100957.02;1692630;83;21462;-47
2021/06/19 09:13:22;;;;;;;3.65;2.45;;;;;;;26.03;67.77;100964.36;1680215;83;21019;-43
2021/06/19 09:15:49;;;;;;;5.85;2.77;;;;;;;26.07;67.89;100959.37;1683253;83;20956;-44
2021/06/19 09:18:27;;;;;;;2.90;2.65;;;;;;;26.12;68.29;100963.27;1687979;83;21049;-44
2021/06/19 09:21:05;;;;;;;4.50;2.90;;;;;;;26.18;68.24;100954.02;1691432;83;21524;-44
2021/06/19 09:23:38;;;;;;;2.62;2.12;;;;;;;26.22;67.88;100954.84;1698260;83;21610;-47
2021/06/19 09:26:11;;;;;;;4.42;2.72;;;;;;;26.25;67.33;100951.73;1697464;83;20973;-44
2021/06/19 09:29:14;;;;;;;3.75;2.65;;;;;;;26.28;67.02;100950.03;1688225;83;21625;-45
2021/06/19 09:31:54;;;;;;;5.62;3.40;;;;;;;26.33;67.46;100950.34;1689804;83;20982;-42
2021/06/19 09:34:24;;;;;;;8.05;3.08;;;;;;;26.40;65.45;100949.08;1688957;83;21043;-40
2021/06/19 09:37:00;;;;;;;6.20;2.75;;;;;;;26.45;66.30;100943.07;1684008;83;21568;-42
2021/06/19 09:39:29;;;;;;;3.85;2.40;;;;;;;26.51;66.90;100940.95;1691524;83;20975;-42
2021/06/19 09:42:05;;;;;;;4.83;2.33;;;;;;;26.56;66.38;100945.42;1689528;83;20982;-41
2021/06/19 09:44:46;;;;;;;3.37;2.47;;;;;;;26.60;67.02;100944.00;1681425;83;21638;-46
2021/06/19 09:47:17;;;;;;;3.85;2.47;;;;;;;26.63;65.44;100938.16;1657637;85;20937;-42
2021/06/19 09:49:47;;;;;;;4.17;2.40;;;;;;;26.66;66.10;100932.84;1657403;84;21627;-43
2021/06/19 09:52:14;;;;;;;5.03;2.67;;;;;;;26.71;67.51;100935.37;1650153;85;20980;-46
2021/06/19 09:54:42;;;;;;;5.83;2.30;;;;;;;26.76;65.96;100930.70;1662615;85;21000;-43
2021/06/19 09:57:18;;;;;;;16.40;4.87;;;;;;;26.80;64.77;100922.98;1659878;85;20960;-43
2021/06/19 09:59:44;;;;;;;3.00;2.33;;;;;;;26.83;64.47;100920.72;1661515;85;21861;-43
2021/06/19 10:02:28;;;;;;;4.25;2.33;;;;;;;26.88;66.51;100919.64;1662247;84;20956;-43
2021/06/19 10:08:26;;;;;;;2.98;2.25;;;;;;;26.97;67.38;100919.06;1677593;82;21091;-41
2021/06/19 10:10:53;;;;;;;3.45;2.00;;;;;;;27.01;69.24;100919.00;1696923;82;21943;-43
2021/06/19 13:02:06;;;;;;;4.87;1.30;;;;;;;27.85;53.83;100829.73;1685108;82;21504;-43
2021/06/19 13:04:33;;;;;;;3.95;1.32;;;;;;;27.75;52.75;100843.70;1685105;83;21194;-44
2021/06/19 13:07:13;;;;;;;3.72;1.12;;;;;;;27.70;53.14;100841.22;1682960;84;20993;-44
2021/06/19 13:09:51;;;;;;;2.42;1.25;;;;;;;27.64;53.42;100830.50;1678509;84;20922;-45
2021/06/19 13:12:20;;;;;;;5.47;1.22;;;;;;;27.60;54.28;100832.78;1684787;83;20961;-43
2021/06/19 13:15:08;;;;;;;1.85;0.95;;;;;;;27.59;54.43;100839.31;1688130;83;21074;-43
2021/06/19 13:17:45;;;;;;;5.55;1.60;;;;;;;27.58;54.24;100832.66;1678544;84;21005;-47
2021/06/19 13:20:37;;;;;;;3.80;1.27;;;;;;;27.59;54.82;100827.49;1683846;84;20937;-43
2021/06/19 13:23:11;;;;;;;6.70;1.32;;;;;;;27.61;54.72;100822.15;1679977;84;20957;-46
2021/06/19 13:26:12;;;;;;;3.83;1.20;;;;;;;27.63;53.79;100820.59;1678762;84;20961;-44
2021/06/19 13:28:58;;;;;;;2.45;0.80;;;;;;;27.61;53.70;100811.72;1678493;83;21456;-44
2021/06/19 13:31:34;;;;;;;2.87;1.02;;;;;;;27.62;53.95;100814.28;1678679;83;21001;-44
2021/06/19 13:34:07;;;;;;;2.40;1.10;;;;;;;27.65;55.62;100808.94;1675134;83;21751;-45
2021/06/19 13:36:44;;;;;;;3.87;1.27;;;;;;;27.69;54.86;100812.12;1676955;83;20969;-45
2021/06/19 13:39:26;;;;;;;3.08;1.50;;;;;;;27.73;55.22;100807.97;1675040;84;20957;-46
2021/06/19 13:42:09;;;;;;;3.12;1.00;;;;;;;27.75;55.93;100798.52;1681917;84;21013;-43
2021/06/19 13:44:40;;;;;;;4.53;1.22;;;;;;;27.79;56.38;100801.17;1673982;83;21500;-44
2021/06/19 13:47:11;;;;;;;2.42;1.10;;;;;;;27.81;56.72;100810.08;1680690;83;21551;-45
2021/06/19 13:49:47;;;;;;;4.45;2.58;;;;;;;27.83;55.89;100807.16;1679250;83;20998;-46
2021/06/19 13:52:16;;;;;;;4.28;2.40;;;;;;;27.82;56.30;100810.42;1676988;83;20981;-43
2021/06/19 13:54:43;;;;;;;3.27;1.30;;;;;;;27.82;56.78;100807.69;1680291;84;21012;-48
2021/06/19 13:57:16;;;;;;;4.33;1.57;;;;;;;27.83;58.21;100808.00;1673236;84;20990;-41
2021/06/19 13:59:44;;;;;;;2.83;1.15;;;;;;;27.83;57.53;100801.15;1675279;84;20974;-45
2021/06/19 14:02:11;;;;;;;6.83;1.42;;;;;;;27.85;57.51;100800.13;1688169;83;20984;-50
2021/06/19 14:04:38;;;;;;;4.50;1.32;;;;;;;27.83;56.74;100795.67;1695002;82;20964;-45
2021/06/19 14:07:05;;;;;;;2.80;1.80;;;;;;;27.84;58.27;100793.77;1697092;83;21510;-44
2021/06/19 14:09:33;;;;;;;3.42;1.05;;;;;;;27.81;58.07;100795.02;1697496;83;21495;-42
2021/06/19 14:12:02;;;;;;;4.47;1.55;;;;;;;27.76;58.33;100790.61;1693645;83;20988;-44
2021/06/19 14:14:28;;;;;;;5.75;1.67;;;;;;;27.70;54.49;100784.55;1695377;82;20964;-43
2021/06/19 14:16:55;;;;;;;1.77;1.22;;;;;;;27.65;53.08;100779.34;1698824;83;20968;-42
2021/06/19 14:19:21;;;;;;;4.50;1.55;;;;;;;27.62;53.46;100777.31;1697643;83;20936;-43
2021/06/19 14:21:48;;;;;;;2.45;0.75;;;;;;;27.59;53.16;100782.31;1698746;83;21039;-43
2021/06/19 14:24:15;;;;;;;2.15;0.95;;;;;;;27.58;52.98;100786.11;1696842;82;21451;-43
2021/06/19 14:26:43;;;;;;;4.20;1.10;;;;;;;27.55;53.17;100793.34;1692214;83;20948;-45